createdAt,value
2019-01-05T00:00:10.068Z,1004.3
2019-01-05T00:01:20.196Z,1004.32
2019-01-05T00:02:30.286Z,1004.24
2019-01-05T00:03:40.374Z,1004.26
2019-01-05T00:04:50.458Z,1004.23
2019-01-05T00:06:00.800Z,1004.23
2019-01-05T00:07:10.870Z,1004.21
2019-01-05T00:08:20.949Z,1004.22
2019-01-05T00:09:31.829Z,1004.19
2019-01-05T00:10:42.000Z,1004.21
2019-01-05T00:11:52.057Z,1004.2
2019-01-05T00:13:02.133Z,1004.14
2019-01-05T00:14:12.205Z,1004.17
2019-01-05T00:15:22.277Z,1004.15
2019-01-05T00:16:32.376Z,1004.12
2019-01-05T00:17:42.186Z,1004.21
2019-01-05T00:18:52.251Z,1004.18
2019-01-05T00:20:02.681Z,1004.23
2019-01-05T00:21:12.724Z,1004.23
2019-01-05T00:22:27.346Z,1004.19
2019-01-05T00:23:37.531Z,1004.2
2019-01-05T00:24:47.625Z,1004.2
2019-01-05T00:25:56.915Z,1004.19
2019-01-05T00:27:06.727Z,1004.25
2019-01-05T00:28:16.782Z,1004.24
2019-01-05T00:29:26.860Z,1004.18
2019-01-05T00:30:36.951Z,1004.2
2019-01-05T00:31:47.015Z,1004.17
2019-01-05T00:32:57.071Z,1004.13
2019-01-05T00:34:07.166Z,1004.15
2019-01-05T00:35:17.299Z,1004.16
2019-01-05T00:36:27.378Z,1004.15
2019-01-05T00:37:37.439Z,1004.18
2019-01-05T00:38:47.507Z,1004.17
2019-01-05T00:39:58.479Z,1004.19
2019-01-05T00:41:08.289Z,1004.21
2019-01-05T00:42:18.356Z,1004.2
2019-01-05T00:43:28.422Z,1004.19
2019-01-05T00:44:38.490Z,1004.25
2019-01-05T00:45:48.348Z,1004.21
2019-01-05T00:46:58.409Z,1004.21
2019-01-05T00:48:08.218Z,1004.18
2019-01-05T00:49:18.286Z,1004.21
2019-01-05T00:50:28.338Z,1004.18
2019-01-05T00:51:37.876Z,1004.16
2019-01-05T00:52:47.920Z,1004.19
2019-01-05T00:53:57.721Z,1004.24
2019-01-05T00:55:07.573Z,1004.11
2019-01-05T00:56:17.657Z,1004.14
2019-01-05T00:57:27.471Z,1004.16
2019-01-05T00:58:37.326Z,1004.13
2019-01-05T00:59:47.130Z,1004.18
2019-01-05T01:00:57.226Z,1004.14
2019-01-05T01:02:07.302Z,1004.13
2019-01-05T01:03:17.363Z,1004.14
2019-01-05T01:04:27.419Z,1004.08
2019-01-05T01:05:37.522Z,1004.05
2019-01-05T01:06:47.589Z,1004.02
2019-01-05T01:07:57.392Z,1003.98
2019-01-05T01:09:07.571Z,1003.99
2019-01-05T01:10:17.635Z,1003.97
2019-01-05T01:11:27.454Z,1003.93
2019-01-05T01:12:37.525Z,1003.96
2019-01-05T01:13:47.572Z,1003.9
2019-01-05T01:14:57.393Z,1004.01
2019-01-05T01:16:07.202Z,1003.98
2019-01-05T01:17:17.273Z,1003.9
2019-01-05T01:18:27.358Z,1003.9
2019-01-05T01:19:37.154Z,1003.89
2019-01-05T01:20:47.212Z,1003.82
2019-01-05T01:21:57.298Z,1003.82
2019-01-05T01:23:07.103Z,1003.86
2019-01-05T01:24:16.924Z,1003.81
2019-01-05T01:25:26.980Z,1003.83
2019-01-05T01:26:36.774Z,1003.77
2019-01-05T01:27:46.830Z,1003.69
2019-01-05T01:28:56.880Z,1003.62
2019-01-05T01:30:06.955Z,1003.71
2019-01-05T01:31:17.030Z,1003.68
2019-01-05T01:32:27.097Z,1003.78
2019-01-05T01:33:36.923Z,1003.85
2019-01-05T01:34:46.988Z,1003.78
2019-01-05T01:35:57.053Z,1003.78
2019-01-05T01:37:06.846Z,1003.84
2019-01-05T01:38:16.890Z,1003.7
2019-01-05T01:39:26.998Z,1003.66
2019-01-05T01:40:37.054Z,1003.61
2019-01-05T01:41:47.160Z,1003.57
2019-01-05T01:42:57.206Z,1003.5
2019-01-05T01:44:07.258Z,1003.51
2019-01-05T01:45:16.871Z,1003.47
2019-01-05T01:46:26.672Z,1003.45
2019-01-05T01:47:36.730Z,1003.46
2019-01-05T01:48:46.786Z,1003.4
2019-01-05T01:49:56.862Z,1003.5
2019-01-05T01:51:06.914Z,1003.5
2019-01-05T01:52:16.709Z,1003.51
2019-01-05T01:53:26.782Z,1003.49
2019-01-05T01:54:36.881Z,1003.47
2019-01-05T01:55:46.952Z,1003.52
2019-01-05T01:56:57.073Z,1003.43
2019-01-05T01:58:07.164Z,1003.44
2019-01-05T01:59:16.976Z,1003.44
2019-01-05T02:00:27.041Z,1003.46
2019-01-05T02:01:36.857Z,1003.44
2019-01-05T02:02:46.915Z,1003.45
2019-01-05T02:03:57.004Z,1003.33
2019-01-05T02:05:07.067Z,1003.43
2019-01-05T02:06:17.137Z,1003.49
2019-01-05T02:07:26.703Z,1003.4
2019-01-05T02:08:36.759Z,1003.36
2019-01-05T02:09:46.596Z,1003.37
2019-01-05T02:10:56.647Z,1003.34
2019-01-05T02:12:06.708Z,1003.35
2019-01-05T02:13:16.515Z,1003.36
2019-01-05T02:14:26.311Z,1003.35
2019-01-05T02:15:36.352Z,1003.28
2019-01-05T02:16:46.166Z,1003.33
2019-01-05T02:17:56.216Z,1003.26
2019-01-05T02:19:06.289Z,1003.24
2019-01-05T02:20:16.113Z,1003.19
2019-01-05T02:21:26.159Z,1003.16
2019-01-05T02:22:35.720Z,1003.15
2019-01-05T02:23:45.793Z,1003.11
2019-01-05T02:24:55.854Z,1003.11
2019-01-05T02:26:05.979Z,1003.12
2019-01-05T02:27:16.032Z,1003.06
2019-01-05T02:28:25.854Z,1003.09
2019-01-05T02:29:35.666Z,1003.1
2019-01-05T02:30:45.455Z,1003.07
2019-01-05T02:31:55.273Z,1003.1
2019-01-05T02:33:05.360Z,1003.17
2019-01-05T02:34:15.412Z,1003.07
2019-01-05T02:35:25.509Z,1003.03
2019-01-05T02:36:35.608Z,1003.02
2019-01-05T02:37:45.685Z,1003
2019-01-05T02:38:55.481Z,1002.99
2019-01-05T02:40:05.548Z,1003.02
2019-01-05T02:41:15.365Z,1002.93
2019-01-05T02:42:25.422Z,1002.93
2019-01-05T02:43:35.486Z,1002.9
2019-01-05T02:44:45.540Z,1002.82
2019-01-05T02:45:55.606Z,1002.78
2019-01-05T02:47:05.670Z,1002.8
2019-01-05T02:48:15.726Z,1002.79
2019-01-05T02:49:25.617Z,1002.79
2019-01-05T02:50:35.700Z,1002.76
2019-01-05T02:51:45.499Z,1002.67
2019-01-05T02:52:55.294Z,1002.74
2019-01-05T02:54:04.863Z,1002.72
2019-01-05T02:55:14.972Z,1002.69
2019-01-05T02:56:24.506Z,1002.68
2019-01-05T02:57:34.573Z,1002.63
2019-01-05T02:58:44.372Z,1002.6
2019-01-05T02:59:54.430Z,1002.63
2019-01-05T03:01:04.620Z,1002.69
2019-01-05T03:02:14.678Z,1002.56
2019-01-05T03:34:42.275Z,1001.83
2019-01-05T03:35:52.342Z,1001.8
2019-01-05T03:37:02.135Z,1001.78
2019-01-05T03:38:11.935Z,1001.76
2019-01-05T03:39:22.004Z,1001.8
2019-01-05T03:40:32.116Z,1001.79
2019-01-05T03:41:42.191Z,1001.79
2019-01-05T03:42:52.248Z,1001.79
2019-01-05T03:44:02.317Z,1001.76
2019-01-05T03:45:12.384Z,1001.76
2019-01-05T03:46:22.448Z,1001.73
2019-01-05T03:47:32.504Z,1001.71
2019-01-05T03:48:42.548Z,1001.79
2019-01-05T03:49:52.338Z,1001.71
2019-01-05T03:51:02.384Z,1001.67
2019-01-05T03:52:13.264Z,1001.62
2019-01-05T03:53:23.327Z,1001.59
2019-01-05T03:54:33.180Z,1001.62
2019-01-05T03:55:43.031Z,1001.62
2019-01-05T03:56:53.099Z,1001.57
2019-01-05T03:58:03.183Z,1001.53
2019-01-05T03:59:13.270Z,1001.47
2019-01-05T04:00:23.353Z,1001.44
2019-01-05T04:01:33.185Z,1001.46
2019-01-05T04:02:43.295Z,1001.43
2019-01-05T04:03:53.157Z,1001.42
2019-01-05T04:05:03.622Z,1001.41
2019-01-05T04:06:13.682Z,1001.41
2019-01-05T04:07:23.741Z,1001.28
2019-01-05T04:08:33.806Z,1001.33
2019-01-05T04:09:43.862Z,1001.29
2019-01-05T04:10:53.928Z,1001.3
2019-01-05T04:12:05.117Z,1001.34
2019-01-05T04:13:14.943Z,1001.37
2019-01-05T04:14:25.016Z,1001.31
2019-01-05T04:15:35.061Z,1001.31
2019-01-05T04:16:45.118Z,1001.27
2019-01-05T04:17:54.944Z,1001.25
2019-01-05T04:19:05.005Z,1001.22
2019-01-05T04:20:15.089Z,1001.16
2019-01-05T04:21:24.946Z,1001.22
2019-01-05T04:22:35.013Z,1001.3
2019-01-05T04:23:45.118Z,1001.14
2019-01-05T04:24:55.168Z,1001.15
2019-01-05T04:26:05.216Z,1001.07
2019-01-05T04:27:15.275Z,1001.15
2019-01-05T04:28:25.351Z,1001.11
2019-01-05T04:29:35.447Z,1001.15
2019-01-05T04:30:45.489Z,1001.04
2019-01-05T04:31:55.532Z,1001.03
2019-01-05T04:33:05.332Z,1001.05
2019-01-05T04:34:15.394Z,1001.05
2019-01-05T04:35:25.447Z,1000.95
2019-01-05T04:36:35.259Z,1000.99
2019-01-05T04:37:45.335Z,1000.96
2019-01-05T04:38:55.394Z,1000.88
2019-01-05T04:40:05.562Z,1000.9
2019-01-05T04:41:15.369Z,1000.9
2019-01-05T04:42:25.176Z,1000.92
2019-01-05T04:43:35.256Z,1000.88
2019-01-05T04:44:45.064Z,1000.85
2019-01-05T04:45:55.136Z,1000.82
2019-01-05T04:47:05.201Z,1000.78
2019-01-05T04:48:15.262Z,1000.75
2019-01-05T04:49:25.320Z,1000.74
2019-01-05T04:50:35.371Z,1000.73
2019-01-05T04:51:45.437Z,1000.79
2019-01-05T04:52:55.497Z,1000.73
2019-01-05T04:54:07.114Z,1000.69
2019-01-05T04:55:17.177Z,1000.71
2019-01-05T04:56:26.970Z,1000.6
2019-01-05T04:57:36.773Z,1000.63
2019-01-05T04:58:46.853Z,1000.59
2019-01-05T04:59:56.924Z,1000.54
2019-01-05T05:01:07.409Z,1000.59
2019-01-05T05:02:17.455Z,1000.51
2019-01-05T05:03:27.264Z,1000.38
2019-01-05T05:04:36.823Z,1000.47
2019-01-05T05:05:46.880Z,1000.32
2019-01-05T05:06:56.696Z,1000.25
2019-01-05T05:08:06.921Z,1000.33
2019-01-05T05:09:16.973Z,1000.34
2019-01-05T05:10:26.769Z,1000.3
2019-01-05T05:11:36.579Z,1000.17
2019-01-05T05:12:46.656Z,1000.23
2019-01-05T05:13:56.763Z,1000.21
2019-01-05T05:15:06.828Z,1000.08
2019-01-05T05:16:16.891Z,1000.02
2019-01-05T05:17:26.676Z,999.99
2019-01-05T05:18:36.745Z,999.97
2019-01-05T05:19:46.792Z,999.97
2019-01-05T05:20:56.847Z,999.87
2019-01-05T05:22:07.167Z,999.88
2019-01-05T05:23:17.233Z,999.86
2019-01-05T05:24:27.283Z,999.78
2019-01-05T05:25:37.344Z,999.9
2019-01-05T05:26:47.380Z,999.84
2019-01-05T05:27:57.431Z,999.88
2019-01-05T05:29:07.574Z,999.83
2019-01-05T05:30:17.631Z,999.77
2019-01-05T05:31:27.443Z,999.75
2019-01-05T05:32:37.483Z,999.66
2019-01-05T05:33:47.552Z,999.82
2019-01-05T05:34:57.345Z,999.69
2019-01-05T05:36:07.559Z,999.73
2019-01-05T05:37:17.639Z,999.68
2019-01-05T05:38:27.678Z,999.7
2019-01-05T05:39:37.497Z,999.74
2019-01-05T05:40:47.066Z,999.65
2019-01-05T05:41:57.122Z,999.6
2019-01-05T05:43:07.415Z,999.6
2019-01-05T05:44:17.227Z,999.53
2019-01-05T05:45:27.038Z,999.58
2019-01-05T05:46:37.085Z,999.61
2019-01-05T05:47:46.889Z,999.72
2019-01-05T05:48:56.984Z,999.64
2019-01-05T05:50:06.782Z,999.66
2019-01-05T05:51:16.598Z,999.68
2019-01-05T05:52:26.651Z,999.63
2019-01-05T05:53:36.696Z,999.6
2019-01-05T05:54:46.778Z,999.54
2019-01-05T05:55:56.346Z,999.49
2019-01-05T05:57:06.408Z,999.53
2019-01-05T05:58:16.233Z,999.54
2019-01-05T05:59:26.286Z,999.64
2019-01-05T06:00:36.352Z,999.5
2019-01-05T06:01:46.153Z,999.41
2019-01-05T06:02:56.200Z,999.49
2019-01-05T06:04:06.248Z,999.58
2019-01-05T06:05:16.321Z,999.52
2019-01-05T06:06:26.426Z,999.49
2019-01-05T06:07:36.489Z,999.46
2019-01-05T06:08:46.280Z,999.55
2019-01-05T06:09:56.341Z,999.67
2019-01-05T06:11:07.204Z,999.64
2019-01-05T06:12:17.257Z,999.44
2019-01-05T06:13:27.855Z,999.56
2019-01-05T06:14:37.907Z,999.63
2019-01-05T06:15:47.953Z,999.57
2019-01-05T06:16:57.795Z,999.57
2019-01-05T06:18:09.522Z,999.62
2019-01-05T06:19:19.327Z,999.59
2019-01-05T06:20:29.391Z,999.68
2019-01-05T06:21:39.451Z,999.62
2019-01-05T06:22:49.504Z,999.57
2019-01-05T06:23:59.347Z,999.54
2019-01-05T06:25:09.414Z,999.59
2019-01-05T06:26:18.973Z,999.52
2019-01-05T06:27:29.019Z,999.52
2019-01-05T06:28:39.068Z,999.51
2019-01-05T06:29:49.154Z,999.47
2019-01-05T06:30:59.204Z,999.41
2019-01-05T06:32:09.253Z,999.32
2019-01-05T06:33:19.341Z,999.42
2019-01-05T06:34:29.425Z,999.4
2019-01-05T06:35:39.492Z,999.45
2019-01-05T06:36:49.540Z,999.28
2019-01-05T06:37:59.100Z,999.44
2019-01-05T06:39:09.147Z,999.43
2019-01-05T06:40:18.969Z,999.41
2019-01-05T06:41:29.034Z,999.43
2019-01-05T06:42:39.095Z,999.5
2019-01-05T06:43:49.184Z,999.43
2019-01-05T06:44:59.239Z,999.36
2019-01-05T06:46:09.303Z,999.27
2019-01-05T06:47:19.374Z,999.3
2019-01-05T06:48:29.176Z,999.35
2019-01-05T06:49:38.965Z,999.23
2019-01-05T06:50:49.027Z,999.21
2019-01-05T06:51:58.830Z,999.31
2019-01-05T06:53:08.629Z,999.28
2019-01-05T06:54:18.671Z,999.29
2019-01-05T06:55:28.707Z,999.26
2019-01-05T06:56:38.501Z,999.22
2019-01-05T06:57:48.586Z,999.23
2019-01-05T06:58:59.277Z,999.02
2019-01-05T07:00:09.365Z,999.24
2019-01-05T07:01:19.970Z,999.24
2019-01-05T07:02:30.018Z,999.13
2019-01-05T07:03:39.827Z,999.16
2019-01-05T07:04:49.880Z,999.17
2019-01-05T07:05:59.947Z,999.08
2019-01-05T07:07:10.025Z,999.04
2019-01-05T07:08:19.832Z,999.25
2019-01-05T07:09:29.887Z,999.08
2019-01-05T07:10:39.715Z,999.21
2019-01-05T07:11:49.517Z,999.11
2019-01-05T07:12:59.566Z,999.05
2019-01-05T07:14:09.645Z,999.18
2019-01-05T07:15:19.441Z,999.03
2019-01-05T07:16:29.507Z,998.96
2019-01-05T07:17:39.315Z,998.98
2019-01-05T07:18:49.359Z,998.94
2019-01-05T07:19:59.417Z,998.95
2019-01-05T07:21:09.484Z,998.92
2019-01-05T07:22:19.323Z,999.01
2019-01-05T07:23:29.370Z,998.91
2019-01-05T07:24:39.170Z,998.78
2019-01-05T07:25:49.226Z,998.87
2019-01-05T07:26:59.294Z,998.82
2019-01-05T07:28:09.351Z,998.75
2019-01-05T07:29:19.429Z,998.71
2019-01-05T07:30:29.476Z,998.75
2019-01-05T07:31:39.541Z,998.71
2019-01-05T07:32:49.597Z,998.77
2019-01-05T07:33:59.644Z,998.69
2019-01-05T07:35:09.709Z,998.59
2019-01-05T07:36:19.510Z,998.68
2019-01-05T07:37:29.321Z,998.61
2019-01-05T07:38:39.396Z,998.46
2019-01-05T07:39:49.504Z,998.65
2019-01-05T07:40:59.572Z,998.59
2019-01-05T07:42:09.377Z,998.67
2019-01-05T07:43:19.478Z,998.49
2019-01-05T07:44:29.286Z,998.51
2019-01-05T07:45:39.369Z,998.49
2019-01-05T07:46:49.421Z,998.54
2019-01-05T07:47:59.482Z,998.53
2019-01-05T07:49:09.528Z,998.49
2019-01-05T07:50:19.923Z,998.41
2019-01-05T07:51:29.728Z,998.42
2019-01-05T07:52:39.790Z,998.45
2019-01-05T07:53:49.860Z,998.33
2019-01-05T07:54:59.925Z,998.39
2019-01-05T07:56:09.728Z,998.38
2019-01-05T07:57:19.809Z,998.48
2019-01-05T07:58:29.614Z,998.56
2019-01-05T07:59:39.671Z,998.38
2019-01-05T08:00:49.460Z,998.4
2019-01-05T08:01:59.794Z,998.28
2019-01-05T08:03:09.845Z,998.39
2019-01-05T08:04:19.655Z,998.3
2019-01-05T08:05:29.732Z,998.38
2019-01-05T08:06:39.817Z,998.3
2019-01-05T08:07:49.615Z,998.4
2019-01-05T08:08:59.433Z,998.4
2019-01-05T08:10:09.498Z,998.23
2019-01-05T08:11:19.565Z,998.35
2019-01-05T08:12:29.386Z,998.45
2019-01-05T08:13:39.447Z,998.25
2019-01-05T08:14:49.533Z,998.12
2019-01-05T08:15:59.321Z,998.24
2019-01-05T08:17:10.036Z,998.13
2019-01-05T08:18:20.210Z,998.23
2019-01-05T08:19:30.038Z,998.06
2019-01-05T08:20:40.103Z,998.13
2019-01-05T08:21:50.157Z,998.12
2019-01-05T08:23:00.326Z,998.09
2019-01-05T08:24:10.382Z,998.01
2019-01-05T08:25:20.459Z,997.99
2019-01-05T08:26:30.527Z,998.13
2019-01-05T08:27:40.073Z,998.01
2019-01-05T08:28:49.641Z,998.01
2019-01-05T08:29:59.432Z,998.11
2019-01-05T08:31:11.004Z,997.93
2019-01-05T08:32:21.086Z,998.02
2019-01-05T08:33:30.901Z,997.92
2019-01-05T08:34:40.696Z,997.9
2019-01-05T08:35:50.507Z,997.76
2019-01-05T08:37:00.582Z,997.84
2019-01-05T08:38:10.653Z,997.84
2019-01-05T08:39:20.476Z,997.96
2019-01-05T08:40:30.552Z,997.94
2019-01-05T08:41:40.610Z,997.76
2019-01-05T08:42:50.671Z,997.67
2019-01-05T08:44:01.337Z,997.96
2019-01-05T08:45:11.419Z,997.83
2019-01-05T08:46:21.232Z,997.75
2019-01-05T08:47:31.029Z,997.78
2019-01-05T08:48:41.084Z,997.71
2019-01-05T08:49:51.506Z,997.85
2019-01-05T08:51:01.667Z,997.84
2019-01-05T08:52:11.756Z,997.84
2019-01-05T08:53:21.805Z,997.67
2019-01-05T08:54:31.857Z,997.74
2019-01-05T08:55:41.919Z,997.64
2019-01-05T08:56:56.621Z,997.79
2019-01-05T08:58:06.691Z,997.72
2019-01-05T08:59:16.755Z,997.63
2019-01-05T09:00:26.803Z,997.74
2019-01-05T09:01:36.879Z,997.7
2019-01-05T09:02:46.922Z,997.79
2019-01-05T09:03:56.978Z,997.63
2019-01-05T09:05:06.888Z,997.62
2019-01-05T09:06:16.926Z,997.54
2019-01-05T09:07:26.476Z,997.63
2019-01-05T09:08:36.570Z,997.65
2019-01-05T09:09:46.664Z,997.62
2019-01-05T09:10:56.472Z,997.66
2019-01-05T09:12:06.646Z,997.89
2019-01-05T09:13:16.696Z,997.59
2019-01-05T09:14:26.764Z,997.68
2019-01-05T09:15:36.829Z,997.56
2019-01-05T09:16:46.619Z,997.71
2019-01-05T09:17:56.443Z,997.62
2019-01-05T09:19:06.497Z,997.61
2019-01-05T09:20:16.561Z,997.63
2019-01-05T09:21:26.623Z,997.48
2019-01-05T09:22:36.672Z,997.55
2019-01-05T09:23:46.742Z,997.53
2019-01-05T09:24:56.813Z,997.51
2019-01-05T09:26:06.878Z,997.54
2019-01-05T09:27:20.560Z,997.54
2019-01-05T09:28:30.538Z,997.52
2019-01-05T09:29:40.099Z,997.61
2019-01-05T09:30:50.170Z,997.49
2019-01-05T09:32:00.545Z,997.5
2019-01-05T09:33:10.626Z,997.54
2019-01-05T09:34:20.692Z,997.52
2019-01-05T09:35:30.767Z,997.44
2019-01-05T09:36:40.849Z,997.4
2019-01-05T09:37:50.924Z,997.43
2019-01-05T09:39:00.985Z,997.5
2019-01-05T09:40:11.068Z,997.35
2019-01-05T09:41:20.879Z,997.34
2019-01-05T09:42:30.947Z,997.34
2019-01-05T09:43:41.259Z,997.33
2019-01-05T09:44:51.341Z,997.23
2019-01-05T09:46:02.239Z,997.19
2019-01-05T09:47:12.295Z,997.26
2019-01-05T09:48:22.352Z,997.23
2019-01-05T09:49:32.395Z,997.16
2019-01-05T09:50:42.201Z,997.24
2019-01-05T09:51:52.263Z,997.13
2019-01-05T09:53:02.341Z,997.18
2019-01-05T09:54:12.399Z,997.16
2019-01-05T09:55:22.439Z,997.21
2019-01-05T09:56:32.512Z,997.15
2019-01-05T09:57:42.557Z,996.99
2019-01-05T09:58:52.102Z,997.11
2019-01-05T10:00:02.565Z,997.03
2019-01-05T10:01:13.283Z,997.07
2019-01-05T10:02:23.348Z,997.09
2019-01-05T10:03:33.433Z,997
2019-01-05T10:04:43.546Z,997.03
2019-01-05T10:05:53.463Z,997.24
2019-01-05T10:07:04.255Z,997.15
2019-01-05T10:08:14.326Z,997.07
2019-01-05T10:09:24.390Z,996.98
2019-01-05T10:10:34.200Z,996.9
2019-01-05T10:11:44.014Z,996.86
2019-01-05T10:12:54.080Z,996.78
2019-01-05T10:14:05.005Z,996.8
2019-01-05T10:15:14.861Z,996.64
2019-01-05T10:16:25.184Z,996.86
2019-01-05T10:17:35.005Z,996.75
2019-01-05T10:18:45.072Z,996.77
2019-01-05T10:19:55.154Z,996.93
2019-01-05T10:21:05.229Z,996.94
2019-01-05T10:22:15.028Z,996.73
2019-01-05T10:23:25.165Z,996.86
2019-01-05T10:24:35.225Z,997
2019-01-05T10:25:45.307Z,996.79
2019-01-05T10:26:55.371Z,996.83
2019-01-05T10:28:05.449Z,996.79
2019-01-05T10:29:15.327Z,996.85
2019-01-05T10:30:25.150Z,996.78
2019-01-05T10:31:35.258Z,996.75
2019-01-05T10:32:44.805Z,996.74
2019-01-05T10:33:54.897Z,996.7
2019-01-05T10:35:04.974Z,996.76
2019-01-05T10:36:15.044Z,996.81
2019-01-05T10:37:24.840Z,996.95
2019-01-05T10:38:34.940Z,996.84
2019-01-05T10:39:45.009Z,996.75
2019-01-05T10:40:55.093Z,996.73
2019-01-05T10:42:05.700Z,996.65
2019-01-05T10:43:15.596Z,996.61
2019-01-05T10:44:25.652Z,996.54
2019-01-05T10:45:35.457Z,996.55
2019-01-05T10:46:45.522Z,996.64
2019-01-05T10:47:56.233Z,996.41
2019-01-05T10:49:06.037Z,996.29
2019-01-05T10:50:15.860Z,996.45
2019-01-05T10:51:25.954Z,996.48
2019-01-05T10:52:35.747Z,996.43
2019-01-05T10:53:45.580Z,996.51
2019-01-05T10:54:55.390Z,996.56
2019-01-05T10:56:05.190Z,996.38
2019-01-05T10:57:15.266Z,996.23
2019-01-05T10:58:25.347Z,996.31
2019-01-05T10:59:35.427Z,996.3
2019-01-05T11:00:44.987Z,996.4
2019-01-05T11:01:55.052Z,996.22
2019-01-05T11:03:04.874Z,996.27
2019-01-05T11:04:14.925Z,996.18
2019-01-05T11:05:25.014Z,996.17
2019-01-05T11:06:34.840Z,996.12
2019-01-05T11:07:44.638Z,996.19
2019-01-05T11:08:54.690Z,996.12
2019-01-05T11:10:05.504Z,996.18
2019-01-05T11:11:15.318Z,996.08
2019-01-05T11:12:25.171Z,996.12
2019-01-05T11:13:34.982Z,996.15
2019-01-05T11:14:44.824Z,996.02
2019-01-05T11:15:54.932Z,996.18
2019-01-05T11:17:05.010Z,996.14
2019-01-05T11:18:15.101Z,996.05
2019-01-05T11:19:24.929Z,996.05
2019-01-05T11:20:35.809Z,995.98
2019-01-05T11:21:45.991Z,996.05
2019-01-05T11:22:56.074Z,996.04
2019-01-05T11:24:06.163Z,996.06
2019-01-05T11:25:16.797Z,996.11
2019-01-05T11:26:26.851Z,996
2019-01-05T11:27:36.684Z,995.87
2019-01-05T11:28:46.299Z,995.9
2019-01-05T11:29:56.381Z,995.93
2019-01-05T11:31:06.489Z,995.94
2019-01-05T11:32:16.576Z,995.92
2019-01-05T11:33:26.681Z,995.79
2019-01-05T11:34:36.755Z,995.94
2019-01-05T11:35:46.852Z,995.9
2019-01-05T11:36:56.431Z,996.03
2019-01-05T11:38:06.542Z,995.97
2019-01-05T11:39:16.627Z,996.06
2019-01-05T11:40:26.706Z,995.91
2019-01-05T11:41:36.792Z,996.04
2019-01-05T11:42:46.878Z,995.99
2019-01-05T11:43:56.983Z,996.06
2019-01-05T11:45:06.821Z,996.01
2019-01-05T11:46:17.080Z,996.05
2019-01-05T11:47:27.174Z,996.03
2019-01-05T11:48:37.255Z,996.06
2019-01-05T11:49:47.327Z,996.08
2019-01-05T11:50:57.415Z,996.04
2019-01-05T11:52:07.260Z,996.1
2019-01-05T11:53:17.438Z,996.07
2019-01-05T11:54:27.533Z,996.13
2019-01-05T11:55:37.621Z,996.09
2019-01-05T11:56:47.754Z,996.14
2019-01-05T11:57:57.559Z,996.09
2019-01-05T11:59:07.648Z,996.25
2019-01-05T12:00:17.774Z,996.18
2019-01-05T12:01:27.871Z,996.14
2019-01-05T12:02:37.438Z,996.14
2019-01-05T12:03:47.510Z,996.1
2019-01-05T12:04:57.650Z,996.19
2019-01-05T12:06:07.324Z,996.24
2019-01-05T12:07:17.475Z,996.27
2019-01-05T12:08:27.614Z,996.25
2019-01-05T12:09:37.438Z,996.17
2019-01-05T12:10:47.620Z,996.26
2019-01-05T12:11:57.722Z,996.23
2019-01-05T12:13:08.097Z,996.23
2019-01-05T12:14:18.164Z,996.14
2019-01-05T12:15:28.336Z,996.16
2019-01-05T12:16:40.850Z,996.14
2019-01-05T12:17:51.062Z,996.25
2019-01-05T12:19:00.628Z,996.22
2019-01-05T12:20:10.712Z,996.22
2019-01-05T12:21:20.555Z,996.18
2019-01-05T12:22:30.632Z,996.12
2019-01-05T12:23:40.701Z,996.13
2019-01-05T12:24:50.506Z,996.09
2019-01-05T12:26:01.277Z,996.19
2019-01-05T12:27:11.372Z,996.25
2019-01-05T12:28:21.488Z,996.26
2019-01-05T12:29:31.551Z,996.17
2019-01-05T12:30:41.632Z,996.2
2019-01-05T12:31:51.734Z,996.21
2019-01-05T12:33:01.569Z,996.11
2019-01-05T12:34:11.706Z,996.06
2019-01-05T12:35:21.778Z,996.09
2019-01-05T12:36:31.862Z,996.2
2019-01-05T12:37:41.927Z,996.38
2019-01-05T12:38:51.737Z,996.33
2019-01-05T12:40:01.843Z,996.41
2019-01-05T12:41:11.928Z,996.34
2019-01-05T12:42:22.018Z,996.29
2019-01-05T12:43:32.093Z,996.36
2019-01-05T12:44:42.155Z,996.26
2019-01-05T12:45:52.249Z,996.31
2019-01-05T12:47:02.767Z,996.28
2019-01-05T12:48:12.828Z,996.3
2019-01-05T12:49:22.660Z,996.4
2019-01-05T12:50:32.712Z,996.38
2019-01-05T12:51:42.525Z,996.35
2019-01-05T12:52:52.624Z,996.42
2019-01-05T12:54:02.704Z,996.39
2019-01-05T12:55:12.790Z,996.43
2019-01-05T12:56:22.868Z,996.39
2019-01-05T12:57:32.440Z,996.3
2019-01-05T12:58:42.511Z,996.37
2019-01-05T12:59:52.576Z,996.53
2019-01-05T13:01:02.745Z,996.49
2019-01-05T13:02:12.810Z,996.44
2019-01-05T13:03:22.615Z,996.47
2019-01-05T13:04:32.723Z,996.45
2019-01-05T13:05:42.800Z,996.48
2019-01-05T13:06:52.856Z,996.55
2019-01-05T13:08:02.935Z,996.58
2019-01-05T13:09:13.001Z,996.53
2019-01-05T13:10:23.099Z,996.48
2019-01-05T13:11:33.167Z,996.43
2019-01-05T13:12:42.985Z,996.43
2019-01-05T13:13:53.064Z,996.52
2019-01-05T13:15:03.115Z,996.52
2019-01-05T13:16:13.192Z,996.54
2019-01-05T13:17:23.261Z,996.52
2019-01-05T13:18:33.101Z,996.57
2019-01-05T13:19:42.973Z,996.61
2019-01-05T13:20:53.051Z,996.55
2019-01-05T13:22:02.862Z,996.61
2019-01-05T13:23:12.734Z,996.59
2019-01-05T13:24:22.553Z,996.65
2019-01-05T13:25:32.636Z,996.55
2019-01-05T13:26:42.196Z,996.59
2019-01-05T13:27:52.312Z,996.65
2019-01-05T13:29:03.023Z,996.65
2019-01-05T13:30:13.130Z,996.63
2019-01-05T13:31:23.335Z,996.71
2019-01-05T13:32:33.398Z,996.72
2019-01-05T13:33:43.202Z,996.75
2019-01-05T13:34:53.324Z,996.76
2019-01-05T13:36:03.389Z,996.8
2019-01-05T13:37:13.457Z,996.8
2019-01-05T13:38:23.522Z,996.79
2019-01-05T13:39:33.595Z,996.73
2019-01-05T13:40:43.447Z,996.81
2019-01-05T13:41:53.534Z,996.83
2019-01-05T13:43:03.595Z,996.72
2019-01-05T13:44:14.588Z,996.82
2019-01-05T13:45:24.656Z,996.81
2019-01-05T13:46:34.752Z,996.88
2019-01-05T13:47:44.583Z,996.85
2019-01-05T13:48:54.675Z,996.86
2019-01-05T13:50:04.770Z,996.93
2019-01-05T13:51:14.567Z,996.93
2019-01-05T13:52:24.677Z,996.89
2019-01-05T13:53:34.741Z,996.82
2019-01-05T13:54:44.824Z,996.78
2019-01-05T13:55:54.876Z,996.86
2019-01-05T13:57:04.989Z,996.87
2019-01-05T13:58:15.066Z,996.83
2019-01-05T13:59:25.151Z,996.87
2019-01-05T14:00:35.244Z,996.87
2019-01-05T14:01:45.317Z,996.89
2019-01-05T14:02:55.419Z,996.98
2019-01-05T14:04:05.288Z,996.98
2019-01-05T14:05:15.365Z,996.98
2019-01-05T14:06:25.200Z,996.96
2019-01-05T14:07:35.301Z,996.97
2019-01-05T14:08:45.398Z,996.96
2019-01-05T14:09:55.468Z,996.95
2019-01-05T14:11:06.657Z,997.04
2019-01-05T14:12:16.520Z,996.98
2019-01-05T14:13:26.409Z,997
2019-01-05T14:14:36.488Z,996.97
2019-01-05T14:15:46.553Z,997.09
2019-01-05T14:16:56.629Z,997.16
2019-01-05T14:18:06.926Z,997.12
2019-01-05T14:19:17.018Z,997.18
2019-01-05T14:20:27.092Z,997.24
2019-01-05T14:21:37.202Z,997.15
2019-01-05T14:22:47.012Z,997.17
2019-01-05T14:23:57.087Z,997.14
2019-01-05T14:25:07.152Z,997.15
2019-01-05T14:26:16.973Z,997.24
2019-01-05T14:27:28.051Z,997.17
2019-01-05T14:28:37.613Z,997.17
2019-01-05T14:29:47.415Z,997.18
2019-01-05T14:30:57.488Z,997.21
2019-01-05T14:32:07.622Z,997.29
2019-01-05T14:33:17.443Z,997.26
2019-01-05T14:34:27.536Z,997.2
2019-01-05T14:35:37.108Z,997.21
2019-01-05T14:36:47.179Z,997.24
2019-01-05T14:37:57.246Z,997.31
2019-01-05T14:39:07.296Z,997.41
2019-01-05T14:40:17.372Z,997.31
2019-01-05T14:41:27.432Z,997.54
2019-01-05T14:42:37.515Z,997.36
2019-01-05T14:43:47.592Z,997.29
2019-01-05T14:44:57.686Z,997.29
2019-01-05T14:46:07.864Z,997.28
2019-01-05T14:47:17.692Z,997.32
2019-01-05T14:48:27.815Z,997.32
2019-01-05T14:49:37.899Z,997.34
2019-01-05T14:50:47.992Z,997.36
2019-01-05T14:51:58.058Z,997.45
2019-01-05T14:53:08.771Z,997.39
2019-01-05T14:54:18.849Z,997.5
2019-01-05T14:55:28.670Z,997.42
2019-01-05T14:56:38.482Z,997.48
2019-01-05T14:57:48.394Z,997.48
2019-01-05T14:58:58.468Z,997.6